Time;durP1;ratioP1;P1;durP2;ratioP2;P2;SDS_P1;SDS_P2;PMS_P1;PMS_P2;Temp;Humidity;BMP_temperature;BMP_pressure;BME280_temperature;BME280_humidity;BME280_pressure;Samples;Min_cycle;Max_cycle;Signal;HPM_P1;HPM_P2
2021/04/04 00:01:16;;;;;;;11.75;1.08;;;5.50;99.90;;;;;;5047202;28;20037;-78
2021/04/04 00:03:42;;;;;;;11.88;1.13;;;5.50;99.90;;;;;;5047228;28;20033;-77
2021/04/04 00:06:08;;;;;;;7.85;0.70;;;5.50;99.90;;;;;;5027158;28;20043;-77
2021/04/04 00:08:33;;;;;;;12.52;1.55;;;5.50;99.90;;;;;;5014475;28;20072;-77
2021/04/04 00:10:59;;;;;;;7.38;0.95;;;5.50;99.90;;;;;;5030928;28;20083;-77
2021/04/04 00:13:24;;;;;;;9.73;1.17;;;5.50;99.90;;;;;;5014869;28;20128;-77
2021/04/04 00:15:50;;;;;;;6.32;0.82;;;5.50;99.90;;;;;;5048280;28;20025;-78
2021/04/04 00:18:15;;;;;;;10.10;1.23;;;5.50;99.90;;;;;;5031006;28;20041;-78
2021/04/04 00:20:41;;;;;;;11.77;1.20;;;5.50;99.90;;;;;;5030817;28;20543;-77
2021/04/04 00:23:07;;;;;;;13.65;0.80;;;5.50;99.90;;;;;;5031132;28;20052;-78
2021/04/04 00:25:32;;;;;;;9.25;0.70;;;5.50;99.90;;;;;;5014713;28;20060;-78
2021/04/04 00:27:58;;;;;;;6.97;0.63;;;5.40;99.90;;;;;;5048597;28;20042;-78
2021/04/04 00:30:24;;;;;;;17.35;2.08;;;5.50;99.90;;;;;;5030721;28;20065;-77
2021/04/04 00:32:50;;;;;;;10.25;1.35;;;5.40;99.90;;;;;;5014018;28;20407;-78
2021/04/04 00:35:18;;;;;;;9.65;1.05;;;5.40;99.90;;;;;;5029990;28;20094;-77
2021/04/04 00:37:45;;;;;;;10.70;0.93;;;5.40;99.90;;;;;;5030495;28;20124;-77
2021/04/04 00:40:16;;;;;;;12.70;1.00;;;5.30;99.90;;;;;;5013906;28;20029;-77
2021/04/04 00:42:42;;;;;;;8.00;0.80;;;5.40;99.90;;;;;;5048806;28;20076;-78
2021/04/04 00:45:10;;;;;;;9.73;1.08;;;5.40;99.90;;;;;;5067973;28;20021;-77
2021/04/04 00:47:36;;;;;;;12.70;0.70;;;5.40;99.90;;;;;;5049994;28;20041;-77
2021/04/04 00:50:07;;;;;;;5.20;0.60;;;5.40;99.90;;;;;;5049814;28;20029;-77
2021/04/04 00:52:33;;;;;;;11.32;1.10;;;5.40;99.90;;;;;;5032604;28;20036;-77
2021/04/04 00:54:59;;;;;;;10.82;0.88;;;5.30;99.90;;;;;;5047753;28;20022;-77
2021/04/04 00:57:25;;;;;;;7.60;0.90;;;5.40;99.90;;;;;;5030073;28;20043;-78
2021/04/04 00:59:51;;;;;;;7.35;0.70;;;5.40;99.90;;;;;;5013606;28;20026;-77
2021/04/04 01:02:18;;;;;;;9.43;0.82;;;5.40;99.90;;;;;;5047601;28;20103;-77
2021/04/04 01:04:46;;;;;;;10.48;1.02;;;5.40;99.90;;;;;;5038131;28;20036;-77
2021/04/04 01:07:12;;;;;;;9.00;1.13;;;5.40;99.90;;;;;;5067273;28;20057;-77
2021/04/04 01:09:38;;;;;;;9.80;0.70;;;5.40;99.90;;;;;;5049732;28;20061;-78
2021/04/04 01:12:12;;;;;;;9.35;0.70;;;5.40;99.90;;;;;;5029491;28;20033;-77
2021/04/04 01:14:45;;;;;;;7.93;0.90;;;5.40;99.90;;;;;;5030108;28;20061;-77
2021/04/04 01:17:14;;;;;;;8.23;0.98;;;5.40;99.90;;;;;;5029582;28;20120;-77
2021/04/04 01:20:09;;;;;;;9.13;1.23;;;5.40;99.90;;;;;;5028990;28;20029;-78
2021/04/04 01:22:57;;;;;;;9.25;1.45;;;5.40;99.90;;;;;;5029552;28;20367;-78
2021/04/04 01:25:50;;;;;;;14.60;0.80;;;5.40;99.90;;;;;;5046015;28;20488;-78
2021/04/04 01:28:27;;;;;;;5.30;1.02;;;5.30;99.90;;;;;;5037802;28;20076;-78
2021/04/04 01:30:54;;;;;;;6.50;1.17;;;5.40;99.90;;;;;;5029494;28;20040;-78
2021/04/04 01:33:21;;;;;;;4.80;0.50;;;5.30;99.90;;;;;;5029219;28;20038;-77
2021/04/04 01:35:51;;;;;;;15.77;0.90;;;5.40;99.90;;;;;;5029062;28;20033;-77
2021/04/04 01:38:22;;;;;;;9.23;0.90;;;5.30;99.90;;;;;;5029188;28;20033;-78
2021/04/04 01:40:53;;;;;;;9.18;0.85;;;5.40;99.90;;;;;;5047317;28;20093;-77
2021/04/04 01:43:19;;;;;;;9.20;1.10;;;5.30;99.90;;;;;;5029144;28;20087;-78
2021/04/04 01:45:45;;;;;;;8.07;0.73;;;5.30;99.90;;;;;;5029083;28;20037;-78
2021/04/04 01:48:14;;;;;;;10.15;0.60;;;5.30;99.90;;;;;;5046655;28;20041;-77
2021/04/04 01:50:43;;;;;;;10.35;0.80;;;5.40;99.90;;;;;;5014640;28;20087;-78
2021/04/04 01:53:11;;;;;;;8.15;0.85;;;5.30;99.90;;;;;;5066811;28;20035;-78
2021/04/04 01:55:39;;;;;;;10.40;0.70;;;5.40;99.90;;;;;;5066569;28;20032;-78
2021/04/04 01:58:07;;;;;;;7.78;1.30;;;5.40;99.90;;;;;;5048718;28;20051;-78
2021/04/04 02:00:34;;;;;;;9.30;0.60;;;5.40;99.90;;;;;;5032228;28;20124;-78
2021/04/04 02:03:01;;;;;;;7.78;0.90;;;5.40;99.90;;;;;;5031858;28;20033;-77
2021/04/04 02:05:48;;;;;;;8.32;0.63;;;5.40;99.90;;;;;;5064847;28;20342;-78
2021/04/04 02:08:16;;;;;;;6.50;0.82;;;5.40;99.90;;;;;;4988223;28;20050;-77
2021/04/04 02:10:42;;;;;;;7.57;0.60;;;5.40;99.90;;;;;;4988065;28;20034;-78
2021/04/04 02:13:09;;;;;;;5.25;0.70;;;5.40;99.90;;;;;;5004677;28;20487;-77
2021/04/04 02:15:36;;;;;;;17.63;0.93;;;5.40;99.90;;;;;;5004624;28;20058;-77
2021/04/04 02:18:05;;;;;;;7.45;0.82;;;5.40;99.90;;;;;;5004681;28;20045;-77
2021/04/04 02:20:33;;;;;;;13.23;1.13;;;5.40;99.90;;;;;;5004416;28;20122;-77
2021/04/04 02:23:02;;;;;;;8.25;0.70;;;5.40;99.90;;;;;;5004443;28;20062;-77
2021/04/04 02:25:27;;;;;;;8.88;0.60;;;5.40;99.90;;;;;;4988116;28;20106;-77
2021/04/04 02:27:53;;;;;;;7.20;0.75;;;5.40;99.90;;;;;;4988107;28;20057;-77
2021/04/04 02:30:19;;;;;;;7.80;0.80;;;5.40;99.90;;;;;;5004264;28;20041;-78
2021/04/04 02:33:02;;;;;;;12.43;0.70;;;5.40;99.90;;;;;;4988090;28;20135;-77
2021/04/04 02:35:34;;;;;;;6.40;0.60;;;5.40;99.90;;;;;;4987690;28;20038;-77
2021/04/04 02:38:03;;;;;;;7.43;0.80;;;5.40;99.90;;;;;;4988246;28;20104;-77
2021/04/04 02:40:32;;;;;;;5.95;0.50;;;5.40;99.90;;;;;;4987651;28;20062;-77
2021/04/04 02:42:59;;;;;;;11.45;0.70;;;5.40;99.90;;;;;;5004249;28;20089;-77
2021/04/04 02:45:27;;;;;;;9.63;0.80;;;5.30;99.90;;;;;;5021279;28;20068;-77
2021/04/04 02:48:03;;;;;;;6.75;0.50;;;5.40;99.90;;;;;;5031559;28;20186;-77
2021/04/04 02:50:32;;;;;;;10.85;0.98;;;5.40;99.90;;;;;;5047520;28;20097;-78
2021/04/04 02:53:02;;;;;;;8.82;0.70;;;5.40;99.90;;;;;;5028251;28;20029;-77
2021/04/04 02:55:31;;;;;;;8.05;0.50;;;5.40;99.90;;;;;;5028059;28;20536;-77
2021/04/04 02:57:58;;;;;;;5.30;0.45;;;5.40;99.90;;;;;;5011711;28;20105;-77
2021/04/04 03:00:24;;;;;;;4.63;0.68;;;5.40;99.90;;;;;;5028254;28;20071;-78
2021/04/04 03:02:53;;;;;;;6.15;0.60;;;5.40;99.90;;;;;;5028056;28;20029;-77
2021/04/04 03:05:22;;;;;;;4.70;0.55;;;5.40;99.90;;;;;;5020833;28;20025;-77
2021/04/04 03:07:50;;;;;;;6.63;0.98;;;5.40;99.90;;;;;;5039456;28;20057;-77
2021/04/04 03:10:17;;;;;;;7.32;0.73;;;5.40;99.90;;;;;;5031088;28;20033;-78
2021/04/04 03:12:46;;;;;;;8.60;0.60;;;5.40;99.90;;;;;;5065427;28;20033;-77
2021/04/04 03:15:14;;;;;;;5.40;0.40;;;5.40;99.90;;;;;;5065375;28;20072;-78
2021/04/04 03:17:42;;;;;;;5.35;0.63;;;5.40;99.90;;;;;;5064134;28;20044;-77
2021/04/04 03:20:09;;;;;;;7.30;0.57;;;5.40;99.90;;;;;;5064005;28;20389;-77
2021/04/04 03:22:37;;;;;;;5.75;0.50;;;5.30;99.90;;;;;;5065307;28;20556;-77
2021/04/04 03:25:05;;;;;;;6.47;0.60;;;5.40;99.90;;;;;;5047539;28;20063;-77
2021/04/04 03:27:31;;;;;;;4.93;0.50;;;5.40;99.90;;;;;;5047384;28;20083;-77
2021/04/04 03:29:58;;;;;;;4.70;0.50;;;5.30;99.90;;;;;;5047596;28;20025;-77
2021/04/04 03:32:24;;;;;;;8.35;0.60;;;5.40;99.90;;;;;;5063895;28;20489;-77
2021/04/04 03:34:52;;;;;;;7.65;0.77;;;5.40;99.90;;;;;;5047255;28;20122;-78
2021/04/04 03:37:18;;;;;;;3.10;0.40;;;5.40;99.90;;;;;;5046728;28;20029;-77
2021/04/04 03:39:44;;;;;;;4.47;0.50;;;5.40;99.90;;;;;;5030976;28;20036;-78
2021/04/04 03:42:10;;;;;;;8.18;0.50;;;5.40;99.90;;;;;;5065653;28;20544;-77
2021/04/04 03:44:39;;;;;;;7.35;0.60;;;5.30;99.90;;;;;;5051097;28;20370;-77
2021/04/04 03:47:06;;;;;;;4.95;0.50;;;5.40;99.90;;;;;;5051072;28;20040;-77
2021/04/04 03:49:33;;;;;;;7.20;1.05;;;5.30;99.90;;;;;;5068043;28;20147;-77
2021/04/04 03:52:00;;;;;;;5.63;0.45;;;5.30;99.90;;;;;;5068825;28;20476;-78
2021/04/04 03:54:28;;;;;;;8.75;0.52;;;5.30;99.90;;;;;;5051187;28;20037;-77
2021/04/04 03:56:56;;;;;;;5.60;0.60;;;5.40;99.90;;;;;;5069278;28;20025;-77
2021/04/04 03:59:23;;;;;;;7.00;0.40;;;5.30;99.90;;;;;;5068888;28;20033;-77
2021/04/04 04:01:50;;;;;;;4.22;0.40;;;5.30;99.90;;;;;;5068790;28;20037;-77
2021/04/04 04:04:18;;;;;;;3.70;0.40;;;5.30;99.90;;;;;;5050522;28;20094;-77
2021/04/04 04:06:45;;;;;;;4.18;0.40;;;5.30;99.90;;;;;;5048242;28;20030;-77
2021/04/04 04:09:17;;;;;;;3.95;0.40;;;5.30;99.90;;;;;;5031033;28;20124;-77
2021/04/04 04:11:45;;;;;;;5.05;0.50;;;5.30;99.90;;;;;;5014793;28;20483;-77
2021/04/04 04:14:14;;;;;;;4.10;0.50;;;5.30;99.90;;;;;;5047314;28;20101;-77
2021/04/04 04:16:41;;;;;;;3.45;0.55;;;5.30;99.90;;;;;;5062789;28;20107;-77
2021/04/04 04:19:08;;;;;;;5.05;0.60;;;5.30;99.90;;;;;;5068746;28;20033;-77
2021/04/04 04:21:34;;;;;;;8.43;1.00;;;5.30;99.90;;;;;;5050642;28;20033;-77
2021/04/04 04:24:05;;;;;;;4.68;0.50;;;5.30;99.90;;;;;;5050747;28;20052;-77
2021/04/04 04:26:34;;;;;;;3.10;0.40;;;5.30;99.90;;;;;;5050329;28;20028;-77
2021/04/04 04:29:01;;;;;;;3.47;0.40;;;5.30;99.90;;;;;;5050538;28;20192;-78
2021/04/04 04:31:32;;;;;;;9.00;0.50;;;5.30;99.90;;;;;;5050306;28;20060;-77
2021/04/04 04:34:00;;;;;;;6.68;0.40;;;5.20;99.90;;;;;;5050311;28;20033;-77
2021/04/04 04:36:27;;;;;;;3.55;0.30;;;5.30;99.90;;;;;;5015375;28;20056;-78
2021/04/04 04:38:54;;;;;;;5.50;0.70;;;5.20;99.90;;;;;;5048201;28;20113;-78
2021/04/04 04:41:22;;;;;;;7.68;0.50;;;5.30;99.90;;;;;;5015145;28;20033;-78
2021/04/04 04:43:55;;;;;;;6.32;0.30;;;5.30;99.90;;;;;;5030249;28;20041;-77
2021/04/04 04:46:21;;;;;;;2.10;0.30;;;5.30;99.90;;;;;;5030221;28;20056;-77
2021/04/04 04:48:46;;;;;;;8.02;1.10;;;5.20;99.90;;;;;;5013781;28;20037;-78
2021/04/04 04:51:12;;;;;;;4.05;0.40;;;5.30;99.90;;;;;;5036374;28;20457;-77
2021/04/04 04:53:38;;;;;;;3.35;0.50;;;5.30;99.90;;;;;;5049837;28;20037;-77
2021/04/04 04:56:05;;;;;;;6.47;0.30;;;5.30;99.90;;;;;;5049941;28;20053;-77
2021/04/04 04:58:33;;;;;;;8.10;0.50;;;5.20;99.90;;;;;;5050113;28;20033;-77
2021/04/04 05:01:09;;;;;;;2.83;0.40;;;5.20;99.90;;;;;;5049735;28;20033;-78
2021/04/04 05:03:35;;;;;;;4.85;0.40;;;5.20;99.90;;;;;;5046292;28;20045;-78
2021/04/04 05:06:09;;;;;;;1.77;0.30;;;5.20;99.90;;;;;;5048423;28;20060;-78
2021/04/04 05:08:38;;;;;;;5.35;0.50;;;5.10;99.90;;;;;;5067567;28;20132;-79
2021/04/04 05:11:07;;;;;;;3.92;0.30;;;5.10;99.90;;;;;;5064275;28;20127;-80
2021/04/04 05:13:33;;;;;;;6.13;0.40;;;5.10;99.90;;;;;;5049668;28;20033;-80
2021/04/04 05:16:01;;;;;;;8.73;0.40;;;5.10;99.90;;;;;;5049272;28;20120;-79
2021/04/04 05:18:27;;;;;;;3.85;0.50;;;5.10;99.90;;;;;;5067621;28;20029;-80
2021/04/04 05:20:53;;;;;;;2.92;0.40;;;5.20;99.90;;;;;;5049487;28;20033;-80
2021/04/04 05:23:23;;;;;;;2.58;0.30;;;5.10;99.90;;;;;;5049260;28;20474;-79
2021/04/04 05:25:53;;;;;;;4.00;0.43;;;5.10;99.90;;;;;;5049065;28;20033;-79
2021/04/04 05:28:19;;;;;;;7.28;0.73;;;5.10;99.90;;;;;;5049096;28;20041;-79
2021/04/04 05:30:44;;;;;;;3.28;0.50;;;5.10;99.90;;;;;;5049515;28;20020;-79
2021/04/04 05:33:10;;;;;;;6.60;0.50;;;5.20;99.90;;;;;;5065522;28;20029;-80
2021/04/04 05:35:41;;;;;;;4.47;0.30;;;5.20;99.90;;;;;;5032412;28;20025;-80
2021/04/04 05:38:09;;;;;;;3.30;0.30;;;5.20;99.90;;;;;;5067194;28;20033;-80
2021/04/04 05:40:35;;;;;;;4.35;0.30;;;5.20;99.90;;;;;;5049404;28;20111;-79
2021/04/04 05:43:13;;;;;;;5.57;1.25;;;5.20;99.90;;;;;;5032663;28;20104;-80
2021/04/04 05:46:08;;;;;;;3.40;0.40;;;5.20;99.90;;;;;;5048357;28;20463;-79
2021/04/04 05:48:57;;;;;;;3.28;0.30;;;5.20;99.90;;;;;;5066468;28;20045;-79
2021/04/04 05:51:50;;;;;;;4.63;0.40;;;5.20;99.90;;;;;;5048400;28;20029;-79
2021/04/04 05:54:24;;;;;;;6.80;0.40;;;5.20;99.90;;;;;;5066267;28;20041;-80
2021/04/04 05:57:13;;;;;;;4.10;0.40;;;5.20;99.90;;;;;;5048265;28;20033;-79
2021/04/04 05:59:53;;;;;;;4.85;0.50;;;5.20;99.90;;;;;;5048296;28;20025;-79
2021/04/04 06:02:57;;;;;;;6.38;0.55;;;5.30;99.90;;;;;;5031486;28;20033;-79
2021/04/04 06:06:04;;;;;;;4.13;0.40;;;5.30;99.90;;;;;;5053286;28;20488;-79
2021/04/04 06:08:49;;;;;;;2.72;0.30;;;5.30;99.90;;;;;;5024085;28;20049;-80
2021/04/04 06:11:29;;;;;;;4.85;0.50;;;5.30;99.90;;;;;;5061404;28;20038;-80
2021/04/04 06:14:26;;;;;;;5.72;0.40;;;5.30;99.90;;;;;;5046143;28;20038;-80
2021/04/04 06:17:02;;;;;;;4.05;0.40;;;5.30;99.90;;;;;;5044595;28;20042;-79
2021/04/04 06:19:55;;;;;;;2.95;0.30;;;5.30;99.90;;;;;;5044678;28;20429;-79
2021/04/04 06:22:37;;;;;;;5.90;0.50;;;5.30;99.90;;;;;;5045784;28;20034;-79
2021/04/04 06:25:13;;;;;;;3.17;0.55;;;5.30;99.90;;;;;;5044347;28;20040;-80
2021/04/04 06:27:44;;;;;;;6.72;0.40;;;5.40;99.90;;;;;;5044411;28;20045;-80
2021/04/04 06:30:47;;;;;;;5.47;0.60;;;5.40;99.90;;;;;;5043588;28;20036;-80
2021/04/04 06:33:27;;;;;;;4.13;0.40;;;5.40;99.90;;;;;;5026068;28;20049;-79
2021/04/04 06:36:11;;;;;;;7.63;0.40;;;5.50;99.90;;;;;;5027864;28;20600;-80
2021/04/04 06:39:05;;;;;;;7.18;0.45;;;5.40;99.90;;;;;;5052314;28;20017;-80
2021/04/04 06:41:49;;;;;;;3.28;0.50;;;5.50;99.90;;;;;;5048924;28;20037;-79
2021/04/04 06:44:32;;;;;;;3.97;0.60;;;5.50;99.90;;;;;;5028124;28;20033;-79
2021/04/04 06:47:02;;;;;;;6.43;0.50;;;5.50;99.90;;;;;;5027489;28;20033;-79
2021/04/04 06:50:00;;;;;;;8.98;0.50;;;5.50;99.90;;;;;;5043625;28;20383;-79
2021/04/04 06:53:03;;;;;;;8.00;0.50;;;5.50;99.90;;;;;;5043714;28;20037;-79
2021/04/04 06:55:56;;;;;;;6.28;0.63;;;5.60;99.90;;;;;;5043732;28;20036;-79
2021/04/04 06:58:41;;;;;;;3.28;0.30;;;5.50;99.90;;;;;;5027198;28;20037;-79
2021/04/04 07:01:25;;;;;;;4.18;0.82;;;5.60;99.90;;;;;;5027413;28;20049;-79
2021/04/04 07:04:01;;;;;;;6.32;1.23;;;5.60;99.90;;;;;;5026988;28;20101;-79
2021/04/04 07:06:27;;;;;;;3.22;0.38;;;5.60;99.90;;;;;;5045651;28;20037;-79
2021/04/04 07:09:05;;;;;;;3.67;0.40;;;5.70;99.90;;;;;;5046976;28;20041;-79
2021/04/04 07:11:34;;;;;;;3.25;0.30;;;5.70;99.90;;;;;;5030207;28;20021;-80
2021/04/04 07:14:36;;;;;;;4.10;0.70;;;5.70;99.90;;;;;;5064821;28;20035;-80
2021/04/04 07:17:09;;;;;;;7.18;1.20;;;5.60;99.90;;;;;;5063814;28;20125;-79
2021/04/04 07:20:02;;;;;;;2.83;0.30;;;5.70;99.90;;;;;;5030296;28;20065;-79
2021/04/04 07:22:57;;;;;;;5.47;0.70;;;5.80;99.90;;;;;;5046555;28;20025;-79
2021/04/04 07:25:44;;;;;;;4.55;0.40;;;5.80;99.90;;;;;;5029899;28;20037;-79
2021/04/04 07:28:51;;;;;;;3.22;0.35;;;5.80;99.90;;;;;;5046243;28;20044;-79
2021/04/04 07:31:26;;;;;;;9.10;0.95;;;5.90;99.90;;;;;;5046776;28;20039;-79
2021/04/04 07:33:58;;;;;;;1.63;0.30;;;5.90;99.90;;;;;;5046346;28;20033;-79
2021/04/04 07:36:31;;;;;;;6.90;0.30;;;5.90;99.90;;;;;;5046446;28;20033;-80
2021/04/04 07:39:05;;;;;;;5.78;0.40;;;6.00;99.90;;;;;;5030302;28;20043;-80
2021/04/04 07:41:49;;;;;;;6.45;0.38;;;6.00;99.90;;;;;;5064474;28;20036;-79
2021/04/04 07:44:35;;;;;;;5.68;0.40;;;6.00;99.90;;;;;;5063308;28;20388;-80
2021/04/04 07:47:12;;;;;;;4.78;0.40;;;6.10;99.90;;;;;;5046161;28;20046;-79
2021/04/04 07:49:39;;;;;;;4.18;0.30;;;6.00;99.90;;;;;;5030105;28;20119;-79
2021/04/04 07:52:16;;;;;;;3.10;0.40;;;5.90;99.90;;;;;;5016436;28;20242;-80
2021/04/04 07:54:53;;;;;;;3.42;0.30;;;6.00;99.90;;;;;;5040100;28;20111;-80
2021/04/04 07:57:42;;;;;;;5.10;0.40;;;6.00;99.90;;;;;;5046247;28;20025;-79
2021/04/04 08:00:09;;;;;;;4.65;0.40;;;6.00;99.90;;;;;;5030038;28;20288;-80
2021/04/04 08:02:43;;;;;;;4.07;0.57;;;6.20;99.90;;;;;;5029662;28;20055;-79
2021/04/04 08:05:12;;;;;;;3.78;0.30;;;6.20;99.90;;;;;;5026287;28;20029;-78
2021/04/04 08:07:47;;;;;;;1.77;0.20;;;6.30;99.90;;;;;;5026118;28;20049;-79
2021/04/04 08:10:49;;;;;;;1.42;0.20;;;6.40;99.90;;;;;;5026731;28;20072;-80
2021/04/04 08:13:47;;;;;;;3.35;0.30;;;6.50;99.90;;;;;;4993773;28;20038;-80
2021/04/04 08:16:28;;;;;;;4.63;0.38;;;6.50;99.90;;;;;;5010100;28;20030;-80
2021/04/04 08:18:53;;;;;;;5.05;0.60;;;6.30;99.90;;;;;;5042757;28;20030;-80
2021/04/04 08:21:55;;;;;;;4.22;0.40;;;6.30;99.90;;;;;;5010262;28;20068;-80
2021/04/04 08:24:41;;;;;;;5.82;0.52;;;6.30;99.90;;;;;;5013243;28;20044;-80
2021/04/04 08:27:25;;;;;;;4.18;0.40;;;6.20;99.90;;;;;;5010129;28;20042;-80
2021/04/04 08:30:17;;;;;;;5.00;0.40;;;6.20;99.90;;;;;;5013758;28;20037;-80
2021/04/04 08:32:48;;;;;;;9.45;0.75;;;6.30;99.90;;;;;;5029313;28;20060;-80
2021/04/04 08:35:19;;;;;;;8.60;0.50;;;6.20;99.90;;;;;;5029430;28;20041;-80
2021/04/04 08:37:50;;;;;;;3.47;0.40;;;6.30;99.90;;;;;;5029607;28;20128;-80
2021/04/04 08:40:19;;;;;;;4.13;0.50;;;6.30;99.90;;;;;;5045840;28;20056;-80
2021/04/04 08:42:46;;;;;;;11.00;1.08;;;6.20;99.90;;;;;;5029452;28;20035;-80
2021/04/04 08:45:14;;;;;;;3.97;0.50;;;6.30;99.90;;;;;;5013441;28;20044;-80
2021/04/04 08:47:45;;;;;;;4.97;0.50;;;6.30;99.90;;;;;;5018443;28;20037;-79
2021/04/04 08:50:15;;;;;;;5.88;1.48;;;6.60;99.90;;;;;;5029415;28;20110;-81
2021/04/04 08:52:50;;;;;;;4.25;0.43;;;6.80;99.90;;;;;;5047957;28;20039;-80
2021/04/04 08:55:26;;;;;;;3.10;0.50;;;6.80;99.90;;;;;;5032806;28;20037;-80
2021/04/04 08:57:53;;;;;;;5.80;0.50;;;7.00;99.90;;;;;;5032051;28;20033;-80
2021/04/04 09:00:23;;;;;;;7.93;0.70;;;7.00;99.90;;;;;;5032548;28;20037;-80
2021/04/04 09:02:59;;;;;;;7.57;0.63;;;6.70;99.90;;;;;;5032448;28;20540;-80
2021/04/04 09:05:45;;;;;;;9.25;0.70;;;6.80;99.90;;;;;;5032302;28;20032;-80
2021/04/04 09:08:13;;;;;;;8.52;0.68;;;6.90;99.90;;;;;;4988674;28;20058;-79
2021/04/04 09:10:41;;;;;;;4.57;0.50;;;6.70;99.90;;;;;;4972808;28;20034;-78
2021/04/04 09:13:09;;;;;;;5.63;0.65;;;6.50;99.90;;;;;;4988582;28;20042;-79
2021/04/04 09:15:48;;;;;;;4.22;0.50;;;6.80;99.90;;;;;;4988527;28;20050;-79
2021/04/04 09:18:15;;;;;;;4.37;0.67;;;6.60;99.90;;;;;;5005185;28;20042;-79
2021/04/04 09:20:44;;;;;;;5.53;0.55;;;6.50;99.90;;;;;;4969343;28;20050;-79
2021/04/04 09:23:12;;;;;;;2.95;0.63;;;6.50;99.90;;;;;;4969493;28;20082;-80
2021/04/04 09:25:48;;;;;;;7.93;0.77;;;6.60;99.90;;;;;;4969341;28;20039;-80
2021/04/04 09:28:15;;;;;;;8.80;1.00;;;6.60;99.90;;;;;;4978676;28;20278;-80
2021/04/04 09:30:44;;;;;;;4.47;0.60;;;6.50;99.90;;;;;;4988362;28;20027;-79
2021/04/04 09:33:13;;;;;;;4.57;0.70;;;6.40;99.90;;;;;;4988614;28;20050;-79
2021/04/04 09:35:40;;;;;;;6.65;0.60;;;6.50;99.90;;;;;;5004492;28;20570;-79
2021/04/04 09:38:10;;;;;;;2.33;0.55;;;6.80;99.90;;;;;;5004770;28;20049;-79
2021/04/04 09:40:37;;;;;;;2.28;0.50;;;6.80;99.90;;;;;;4987591;28;20060;-79
2021/04/04 09:43:16;;;;;;;6.32;0.80;;;6.80;99.90;;;;;;4988192;28;20110;-79
2021/04/04 09:45:43;;;;;;;4.03;0.75;;;6.70;99.90;;;;;;5045894;28;20041;-79
2021/04/04 09:48:16;;;;;;;4.90;0.85;;;6.50;99.90;;;;;;5048471;28;20045;-80
2021/04/04 09:50:41;;;;;;;3.25;0.50;;;6.50;99.90;;;;;;5019059;28;20025;-79
2021/04/04 09:53:07;;;;;;;5.30;0.70;;;6.70;99.90;;;;;;5048515;28;20116;-79
2021/04/04 09:55:33;;;;;;;4.13;0.50;;;6.70;99.90;;;;;;5048213;28;20025;-79
2021/04/04 09:58:01;;;;;;;5.75;0.70;;;6.70;99.90;;;;;;5048337;28;20064;-80
2021/04/04 10:00:27;;;;;;;2.92;0.60;;;6.70;99.90;;;;;;5064678;28;20028;-79
2021/04/04 10:02:56;;;;;;;3.60;0.60;;;6.70;99.90;;;;;;5048181;28;20044;-79
2021/04/04 10:05:48;;;;;;;2.70;0.50;;;6.90;99.90;;;;;;5027984;28;20084;-79
2021/04/04 10:08:21;;;;;;;5.10;0.60;;;7.00;99.90;;;;;;4977440;28;20050;-80
2021/04/04 10:10:49;;;;;;;3.58;0.52;;;7.00;99.90;;;;;;4987502;28;20049;-80
2021/04/04 10:13:16;;;;;;;4.32;0.70;;;7.00;99.90;;;;;;4971282;28;20049;-79
2021/04/04 10:15:45;;;;;;;6.07;0.90;;;6.90;99.90;;;;;;4970627;28;20386;-80
2021/04/04 10:18:11;;;;;;;5.57;1.23;;;6.80;99.90;;;;;;5003379;28;20096;-80
2021/04/04 10:20:42;;;;;;;5.25;1.35;;;7.00;99.90;;;;;;4987775;28;20026;-80
2021/04/04 10:23:08;;;;;;;9.77;1.38;;;6.90;99.90;;;;;;5003968;28;20069;-79
2021/04/04 10:25:35;;;;;;;5.03;1.73;;;6.70;99.90;;;;;;4971262;28;20044;-80
2021/04/04 10:28:05;;;;;;;5.88;1.00;;;6.80;99.90;;;;;;4971628;28;20061;-81
2021/04/04 10:30:32;;;;;;;5.32;1.10;;;6.90;99.90;;;;;;4987456;28;20030;-80
2021/04/04 10:33:17;;;;;;;3.75;0.93;;;6.90;99.90;;;;;;4971467;28;20123;-80
2021/04/04 10:35:43;;;;;;;2.90;0.77;;;7.00;99.90;;;;;;5002701;28;20113;-80
2021/04/04 10:38:23;;;;;;;1.90;0.73;;;6.90;99.90;;;;;;4970118;28;20037;-80
2021/04/04 10:40:53;;;;;;;3.78;0.60;;;6.80;99.90;;;;;;4986991;28;20031;-80
2021/04/04 10:43:21;;;;;;;4.32;0.68;;;6.90;99.90;;;;;;4984901;28;20034;-80
2021/04/04 10:46:03;;;;;;;3.42;0.77;;;7.10;99.90;;;;;;5039367;28;20473;-80
2021/04/04 10:48:31;;;;;;;5.47;0.60;;;7.10;99.90;;;;;;5046878;28;20041;-80
2021/04/04 10:50:58;;;;;;;4.18;1.00;;;7.20;99.90;;;;;;5043285;28;20025;-80
2021/04/04 10:53:24;;;;;;;7.57;1.00;;;6.90;99.90;;;;;;5011393;28;20047;-79
2021/04/04 10:55:51;;;;;;;3.80;0.90;;;6.90;99.90;;;;;;5011016;28;20033;-79
2021/04/04 10:58:20;;;;;;;3.25;0.88;;;7.10;99.90;;;;;;5027677;28;20033;-80
2021/04/04 11:00:46;;;;;;;3.80;0.90;;;7.10;99.90;;;;;;5027145;28;20113;-80
2021/04/04 11:03:12;;;;;;;5.80;1.02;;;7.00;99.90;;;;;;5011307;28;20039;-80
2021/04/04 11:05:58;;;;;;;2.78;0.85;;;6.90;99.90;;;;;;5039368;28;20057;-80
2021/04/04 11:08:24;;;;;;;4.22;0.63;;;7.20;99.90;;;;;;4953583;28;20050;-80
2021/04/04 11:10:51;;;;;;;3.78;0.55;;;7.30;99.90;;;;;;4964416;29;20420;-80
2021/04/04 11:13:18;;;;;;;4.95;1.17;;;7.40;99.90;;;;;;4965397;29;20043;-80
2021/04/04 11:15:57;;;;;;;2.33;0.65;;;7.30;99.90;;;;;;4949916;29;20043;-80
2021/04/04 11:18:34;;;;;;;2.55;0.60;;;7.20;99.90;;;;;;4949988;29;20118;-79
2021/04/04 11:21:04;;;;;;;2.65;0.60;;;7.30;99.90;;;;;;4964550;29;20031;-79
2021/04/04 11:23:30;;;;;;;2.22;0.60;;;7.30;99.90;;;;;;4948309;29;20539;-79
2021/04/04 11:25:56;;;;;;;2.33;0.50;;;7.20;99.90;;;;;;4948078;29;20075;-79
2021/04/04 11:28:24;;;;;;;4.05;0.75;;;7.30;99.90;;;;;;4948259;29;20039;-79
2021/04/04 11:30:54;;;;;;;4.15;0.70;;;7.20;99.90;;;;;;4948254;29;20561;-79
2021/04/04 11:33:26;;;;;;;3.05;0.60;;;7.30;99.90;;;;;;4948055;29;20067;-79
2021/04/04 11:36:11;;;;;;;2.97;1.35;;;7.10;99.90;;;;;;4948039;29;20068;-79
2021/04/04 11:38:40;;;;;;;4.43;1.05;;;7.20;99.90;;;;;;4948307;29;20130;-79
2021/04/04 11:41:27;;;;;;;3.60;0.67;;;7.40;99.90;;;;;;4964244;29;20043;-79
2021/04/04 11:44:17;;;;;;;2.63;0.60;;;7.50;99.90;;;;;;4948101;29;20094;-79
2021/04/04 11:46:58;;;;;;;2.58;0.80;;;7.50;99.90;;;;;;5036565;28;20049;-80
2021/04/04 11:49:33;;;;;;;2.80;0.68;;;7.50;99.90;;;;;;5007789;28;20069;-79
2021/04/04 11:52:01;;;;;;;2.42;0.60;;;7.40;99.90;;;;;;5024990;28;20030;-79
2021/04/04 11:54:45;;;;;;;2.80;0.60;;;7.40;99.90;;;;;;5023515;28;20034;-79
2021/04/04 11:57:20;;;;;;;2.88;0.75;;;7.60;99.90;;;;;;5025034;28;20360;-80
2021/04/04 11:59:53;;;;;;;3.00;0.60;;;7.50;99.90;;;;;;5007362;28;20064;-79
2021/04/04 12:02:22;;;;;;;3.03;0.50;;;7.70;99.90;;;;;;5007230;28;20022;-79
2021/04/04 12:05:13;;;;;;;3.80;0.50;;;7.80;99.90;;;;;;5027477;28;20034;-79
2021/04/04 12:07:51;;;;;;;2.35;1.05;;;7.80;99.90;;;;;;5010659;28;20050;-79
2021/04/04 12:10:23;;;;;;;4.45;0.70;;;7.80;99.90;;;;;;5026398;28;20018;-79
2021/04/04 12:12:49;;;;;;;1.85;0.55;;;7.90;99.90;;;;;;5009396;28;20044;-79
2021/04/04 12:15:17;;;;;;;1.77;0.60;;;7.70;99.90;;;;;;5027826;28;20030;-79
2021/04/04 12:17:48;;;;;;;2.63;0.50;;;8.20;99.90;;;;;;5028343;28;20040;-79
2021/04/04 12:20:15;;;;;;;5.03;0.73;;;8.40;99.90;;;;;;5026900;28;20033;-79
2021/04/04 12:22:43;;;;;;;4.45;0.80;;;8.00;99.90;;;;;;5010469;28;20030;-80
2021/04/04 12:25:20;;;;;;;5.65;0.57;;;8.10;99.90;;;;;;5010487;28;20121;-79
2021/04/04 12:27:48;;;;;;;5.97;0.70;;;8.10;99.90;;;;;;5007299;28;20042;-80
2021/04/04 12:30:35;;;;;;;4.22;0.70;;;8.00;99.90;;;;;;5028009;28;20209;-79
2021/04/04 12:33:17;;;;;;;2.45;0.52;;;8.00;99.90;;;;;;5010069;28;20033;-79
2021/04/04 12:35:50;;;;;;;3.08;0.60;;;8.30;99.90;;;;;;5010082;28;20097;-80
2021/04/04 12:38:27;;;;;;;2.88;0.60;;;8.40;99.90;;;;;;5010121;28;20041;-79
2021/04/04 12:40:55;;;;;;;3.30;0.73;;;8.40;99.90;;;;;;5026385;28;20036;-79
2021/04/04 12:43:21;;;;;;;4.65;0.63;;;8.30;99.90;;;;;;5004029;28;20019;-79
2021/04/04 12:45:47;;;;;;;3.60;0.88;;;8.30;99.90;;;;;;4990235;28;20077;-79
2021/04/04 12:48:25;;;;;;;3.30;0.90;;;8.30;99.90;;;;;;5024860;28;20041;-79
2021/04/04 12:50:55;;;;;;;7.28;0.93;;;8.20;99.90;;;;;;5022441;28;20030;-79
2021/04/04 12:53:30;;;;;;;5.57;1.10;;;8.00;99.90;;;;;;5006552;28;20054;-79
2021/04/04 12:55:57;;;;;;;4.43;1.08;;;7.90;99.90;;;;;;5009131;28;20386;-79
2021/04/04 12:58:31;;;;;;;2.67;0.80;;;8.50;99.90;;;;;;5042846;28;20034;-80
2021/04/04 13:00:57;;;;;;;6.05;0.68;;;8.80;99.90;;;;;;5026697;28;20033;-80
2021/04/04 13:03:22;;;;;;;7.75;0.98;;;8.80;99.90;;;;;;5043207;28;20394;-80
2021/04/04 13:05:50;;;;;;;5.95;1.17;;;8.40;99.90;;;;;;5027069;28;20026;-79
2021/04/04 13:08:21;;;;;;;9.90;1.23;;;8.60;99.90;;;;;;5053151;28;20428;-79
2021/04/04 13:10:50;;;;;;;2.97;0.80;;;8.70;99.90;;;;;;5032123;28;20057;-79
2021/04/04 13:13:18;;;;;;;5.05;0.80;;;9.10;99.90;;;;;;5049112;28;20127;-80
2021/04/04 13:15:45;;;;;;;5.80;0.98;;;9.10;99.90;;;;;;5047012;28;20021;-80
2021/04/04 13:18:23;;;;;;;4.88;0.80;;;9.10;99.90;;;;;;5031374;28;20052;-79
2021/04/04 13:20:50;;;;;;;5.65;1.13;;;9.40;99.90;;;;;;5048140;28;20100;-80
2021/04/04 13:23:17;;;;;;;5.65;1.10;;;9.00;99.90;;;;;;5047071;28;20047;-80